ADDS METAR Data INFO
IDs: Format: Raw Decoded Include TAF

Data at: 0301 UTC 21 Oct 2017

KPPO 210255Z AUTO 16004KT 10SM SCT110 16/10 A3012 RMK AO2 T01590095
KPPO 210235Z AUTO 16004KT 10SM CLR 16/10 A3012 RMK AO2 T01610095
KPPO 210215Z AUTO 16004KT 10SM CLR 17/10 A3011 RMK AO2 T01650095
KPPO 210155Z AUTO 16004KT 10SM CLR 17/10 A3011 RMK AO2 T01690095
KPPO 210135Z AUTO 17005KT 10SM CLR 17/10 A3011 RMK AO2 T01720095
KPPO 210115Z AUTO 17005KT 10SM CLR 18/10 A3011 RMK AO2 T01780095
KPPO 210055Z AUTO 18005KT 10SM CLR 18/10 A3011 RMK AO2 T01800096
KPPO 210035Z AUTO 18004KT 10SM CLR 18/10 A3012 RMK AO2 T01800097
KPPO 210015Z AUTO 17005KT 10SM CLR 18/10 A3011 RMK AO2 T01840099
KPPO 202355Z AUTO 17004KT 10SM CLR 19/10 A3011 RMK AO2 T01910100 10249 20191
KPPO 202335Z AUTO 17005KT 10SM CLR 20/10 A3011 RMK AO2 T01950100
KPPO 202315Z AUTO 17004KT 10SM CLR 20/10 A3011 RMK AO2 T01990101
KPPO 202255Z AUTO 17005KT 10SM CLR 21/10 A3011 RMK AO2 T02090101
KPPO 202235Z AUTO 18005KT 10SM CLR 22/10 A3011 RMK AO2 T02160103
KPPO 202215Z AUTO 18004KT 10SM CLR 23/10 A3011 RMK AO2 T02250101
KPPO 202155Z AUTO 18007KT 10SM CLR 24/11 A3011 RMK AO2 T02350106
KPPO 202135Z AUTO 19008KT 10SM CLR 24/10 A3011 RMK AO2 T02390099
KPPO 202115Z AUTO 20008KT 10SM CLR 24/10 A3012 RMK AO2 T02410100
KPPO 202055Z AUTO 19007KT 10SM CLR 25/10 A3012 RMK AO2 T02470103
KPPO 202035Z AUTO 21010G14KT 150V220 10SM CLR 25/10 A3012 RMK AO2 T02450102
KPPO 202015Z AUTO 17008KT 10SM CLR 25/10 A3013 RMK AO2 T02460100
KPPO 201955Z AUTO 21009G14KT 10SM CLR 25/10 A3013 RMK AO2 T02470098
KPPO 201935Z AUTO 21010G15KT 10SM CLR 25/10 A3014 RMK AO2 T02470102
KPPO 201915Z AUTO 18009G15KT 10SM CLR 25/11 A3014 RMK AO2 T02460108
KPPO 201855Z AUTO 20010G15KT 10SM CLR 24/11 A3015 RMK AO2 T02430111
KPPO 201835Z AUTO 18009G15KT 10SM CLR 24/11 A3015 RMK AO2 T02400110
KPPO 201815Z AUTO 19009G14KT 10SM CLR 24/11 A3016 RMK AO2 T02390110
KPPO 201755Z AUTO 18008KT 10SM CLR 24/11 A3017 RMK AO2 T02410111 10241 20070
KPPO 201735Z AUTO 19008G15KT 10SM CLR 24/11 A3018 RMK AO2 T02360111
KPPO 201715Z AUTO 19008KT 10SM CLR 23/12 A3019 RMK AO2 T02310115
KPPO 201655Z AUTO 18007KT 150V220 10SM CLR 23/12 A3020 RMK AO2 T02250119
KPPO 201635Z AUTO 15007KT 020V210 10SM CLR 22/12 A3021 RMK AO2 T02170119
KPPO 201615Z AUTO 09006KT 10SM CLR 21/12 A3021 RMK AO2 T02100119
KPPO 201555Z AUTO 19007KT 10SM CLR 20/12 A3022 RMK AO2 T01990116
KPPO 201535Z AUTO 19006KT 10SM CLR 19/12 A3023 RMK AO2 T01900115
KPPO 201515Z AUTO 18008KT 10SM CLR 18/11 A3023 RMK AO2 T01810114
KPPO 201455Z AUTO 20006KT 10SM CLR 17/12 A3023 RMK AO2 T01660115
KPPO 201435Z AUTO 19005KT 10SM CLR 15/11 A3023 RMK AO2 T01530110
KPPO 201415Z AUTO 20005KT 10SM CLR 14/11 A3023 RMK AO2 T01420105
KPPO 201355Z AUTO 18003KT 10SM CLR 13/10 A3024 RMK AO2 T01320103
KPPO 201335Z AUTO 16003KT 10SM CLR 12/10 A3023 RMK AO2 T01150096
KPPO 201315Z AUTO 00000KT 10SM CLR 10/09 A3023 RMK AO2 T01010086
KPPO 201255Z AUTO 00000KT 10SM CLR 09/08 A3023 RMK AO2 T00910078
KPPO 201235Z AUTO 00000KT 10SM CLR 09/07 A3022 RMK AO2 T00850068
KPPO 201215Z AUTO 00000KT 10SM SCT110 08/06 A3022 RMK AO2 T00770062
KPPO 201155Z AUTO 00000KT 10SM SCT110 06/05 A3022 RMK AO2 70001 T00630052 10072 20055
KPPO 201135Z AUTO 00000KT 10SM CLR 06/04 A3022 RMK AO2 T00550041
KPPO 201115Z AUTO 00000KT 10SM CLR 06/04 A3021 RMK AO2 T00620044
KPPO 201055Z AUTO 00000KT 10SM SCT110 06/05 A3021 RMK AO2 T00610045
KPPO 201035Z AUTO 00000KT 10SM SCT110 06/04 A3021 RMK AO2 T00610041
KPPO 201015Z AUTO 00000KT 10SM SCT110 06/04 A3021 RMK AO2 T00580040
KPPO 200955Z AUTO 00000KT 10SM CLR 06/04 A3021 RMK AO2 T00600038
KPPO 200935Z AUTO 00000KT 10SM CLR 07/03 A3020 RMK AO2 T00650033
KPPO 200915Z AUTO 00000KT 10SM SCT110 06/04 A3020 RMK AO2 T00610037
KPPO 200855Z AUTO 00000KT 10SM SCT110 07/04 A3020 RMK AO2 T00650037
KPPO 200835Z AUTO 00000KT 10SM CLR 06/04 A3020 RMK AO2 T00640037
KPPO 200815Z AUTO 00000KT 10SM CLR 06/04 A3019 RMK AO2 T00640040
KPPO 200755Z AUTO 00000KT 10SM CLR 07/04 A3019 RMK AO2 T00700040
KPPO 200735Z AUTO 00000KT 10SM SCT110 07/04 A3019 RMK AO2 T00700044
KPPO 200715Z AUTO 00000KT 10SM CLR 07/04 A3019 RMK AO2 T00690042
KPPO 200655Z AUTO 00000KT 10SM CLR 07/05 A3019 RMK AO2 T00700046
KPPO 200635Z AUTO 00000KT 10SM CLR 07/05 A3019 RMK AO2 T00710045
KPPO 200615Z AUTO 00000KT 10SM CLR 07/04 A3019 RMK AO2 T00700044
KPPO 200555Z AUTO 00000KT 10SM CLR 07/05 A3019 RMK AO2 T00650046 10101 20059 401900059
KPPO 200535Z AUTO 00000KT 10SM CLR 07/05 A3019 RMK AO2 T00700046
KPPO 200515Z AUTO 00000KT 10SM CLR 08/05 A3019 RMK AO2 T00760047
KPPO 200455Z AUTO 00000KT 10SM CLR 07/05 A3020 RMK AO2 T00680048
KPPO 200435Z AUTO 00000KT 10SM CLR 07/05 A3020 RMK AO2 T00670046
KPPO 200415Z AUTO 00000KT 10SM CLR 08/05 A3020 RMK AO2 T00750050
KPPO 200355Z AUTO 00000KT 10SM CLR 06/05 A3020 RMK AO2 T00590047
KPPO 200335Z AUTO 00000KT 10SM CLR 07/05 A3020 RMK AO2 T00700050
KPPO 200315Z AUTO 00000KT 10SM CLR 07/05 A3020 RMK AO2 T00690050
KPPO 200255Z AUTO 00000KT 10SM CLR 07/05 A3019 RMK AO2 T00720054
KPPO 200235Z AUTO 00000KT 10SM CLR 08/05 A3019 RMK AO2 T00780052
KPPO 200215Z AUTO 00000KT 10SM CLR 08/05 A3019 RMK AO2 T00770048
KPPO 200155Z AUTO 00000KT 10SM CLR 08/05 A3019 RMK AO2 T00800051
KPPO 200135Z AUTO 00000KT 10SM CLR 08/05 A3019 RMK AO2 T00780050
KPPO 200115Z AUTO 00000KT 10SM CLR 08/05 A3020 RMK AO2 T00780053
KPPO 200055Z AUTO 00000KT 10SM CLR 08/05 A3020 RMK AO2 T00790051
KPPO 200035Z AUTO 00000KT 10SM CLR 08/05 A3020 RMK AO2 T00820052
KPPO 200015Z AUTO 00000KT 10SM CLR 10/05 A3020 RMK AO2 T00980053
KPPO 192355Z AUTO 00000KT 10SM CLR 10/05 A3020 RMK AO2 T00980049 10190 20091
KPPO 192335Z AUTO 00000KT 10SM CLR 11/05 A3020 RMK AO2 T01060049
KPPO 192315Z AUTO 00000KT 10SM CLR 12/05 A3019 RMK AO2 T01210046
KPPO 192255Z AUTO 00000KT 5SM HZ CLR 13/05 A3019 RMK AO2 T01320049
KPPO 192235Z AUTO 00000KT 10SM CLR 15/05 A3020 RMK AO2 T01450054
KPPO 192215Z AUTO 00000KT 10SM CLR 16/04 A3019 RMK AO2 T01570036
KPPO 192155Z AUTO 35003KT 10SM CLR 16/04 A3020 RMK AO2 T01620038
KPPO 192135Z AUTO 36003KT 10SM CLR 17/02 A3019 RMK AO2 T01720021
KPPO 192115Z AUTO 35003KT 10SM CLR 18/00 A3019 RMK AO2 T01801003
KPPO 192055Z AUTO 35005KT 10SM CLR 18/01 A3019 RMK AO2 T01840007
KPPO 192035Z AUTO 36004KT 10SM CLR 19/01 A3019 RMK AO2 T01850008
KPPO 192015Z AUTO 01005KT 10SM CLR 19/00 A3019 RMK AO2 T01850001
KPPO 191955Z AUTO 01005KT 10SM CLR 19/00 A3019 RMK AO2 T01900000
KPPO 191935Z AUTO 33003KT 10SM CLR 19/00 A3019 RMK AO2 T01891003
KPPO 191915Z AUTO 00000KT 10SM CLR 19/M01 A3018 RMK AO2 T01871008
KPPO 191855Z AUTO 36005KT 10SM CLR 19/00 A3019 RMK AO2 T01891003
KPPO 191835Z AUTO 00000KT 10SM CLR 19/01 A3019 RMK AO2 T01850008
KPPO 191815Z AUTO 31005KT 10SM CLR 19/02 A3019 RMK AO2 T01850018
KPPO 191755Z AUTO 33004KT 10SM CLR 18/03 A3019 RMK AO2 60001 T01830026 10184 20066
KPPO 191735Z AUTO 31004KT 10SM CLR 18/03 A3020 RMK AO2 T01800032
KPPO 191715Z AUTO 33003KT 10SM CLR 18/04 A3020 RMK AO2 T01750038
KPPO 191655Z AUTO 35006KT 10SM CLR 18/05 A3020 RMK AO2 T01750053
KPPO 191635Z AUTO 33007KT 10SM CLR 17/07 A3020 RMK AO2 T01730069
KPPO 191615Z AUTO 33005KT 10SM CLR 17/08 A3020 RMK AO2 T01660084
KPPO 191555Z AUTO 33006KT 10SM CLR 16/09 A3019 RMK AO2 P0001 T01640090
KPPO 191535Z AUTO 33006KT 10SM CLR 16/09 A3019 RMK AO2 P0001 T01580089
KPPO 191515Z AUTO 33007KT 10SM CLR 15/09 A3018 RMK AO2 T01520093